Time;durP1;ratioP1;P1;durP2;ratioP2;P2;SDS_P1;SDS_P2;PMS_P1;PMS_P2;Temp;Humidity;BMP_temperature;BMP_pressure;BME280_temperature;BME280_humidity;BME280_pressure;Samples;Min_cycle;Max_cycle;Signal;HPM_P1;HPM_P2
2023/08/14 00:02:03;;;;;;;3.15;2.75;;;15.70;99.90;;;;;;5113413;27;20060;-75
2023/08/14 00:04:29;;;;;;;3.55;3.25;;;15.70;99.90;;;;;;5123291;27;20538;-73
2023/08/14 00:06:55;;;;;;;3.58;2.95;;;15.60;99.90;;;;;;5122164;27;20051;-73
2023/08/14 00:09:21;;;;;;;4.32;3.80;;;15.70;99.90;;;;;;5109773;27;20095;-75
2023/08/14 00:11:46;;;;;;;4.55;3.22;;;15.60;99.90;;;;;;5122414;27;20562;-75
2023/08/14 00:14:12;;;;;;;5.40;3.30;;;15.60;99.90;;;;;;5120968;27;20078;-74
2023/08/14 00:16:38;;;;;;;3.75;3.28;;;15.60;99.90;;;;;;5125650;27;20039;-73
2023/08/14 00:19:03;;;;;;;3.20;2.90;;;15.60;99.90;;;;;;5127649;27;20079;-76
2023/08/14 00:21:29;;;;;;;6.15;2.83;;;15.50;99.90;;;;;;5123567;27;20070;-74
2023/08/14 00:23:55;;;;;;;4.40;3.20;;;15.60;99.90;;;;;;5138205;27;20053;-73
2023/08/14 00:26:21;;;;;;;2.75;2.55;;;15.60;99.90;;;;;;5124492;27;20047;-73
2023/08/14 00:28:46;;;;;;;2.53;2.33;;;15.60;99.90;;;;;;5132722;27;20121;-73
2023/08/14 00:31:12;;;;;;;2.97;2.58;;;15.60;99.90;;;;;;5136260;27;20046;-74
2023/08/14 00:33:38;;;;;;;2.45;2.25;;;15.60;99.90;;;;;;5126870;27;20043;-73
2023/08/14 00:36:05;;;;;;;2.53;2.30;;;15.50;99.90;;;;;;5139183;27;20051;-74
2023/08/14 00:38:31;;;;;;;3.80;3.15;;;15.50;99.90;;;;;;5140309;27;20588;-75
2023/08/14 00:40:57;;;;;;;3.38;3.08;;;15.50;99.90;;;;;;5112187;27;20057;-74
2023/08/14 00:43:23;;;;;;;2.83;2.20;;;15.40;99.90;;;;;;5134840;27;20046;-73
2023/08/14 00:45:58;;;;;;;2.40;2.20;;;15.40;99.90;;;;;;5122771;27;20082;-74
2023/08/14 00:48:24;;;;;;;1.90;1.80;;;15.40;99.90;;;;;;5105720;27;20046;-73
2023/08/14 00:50:52;;;;;;;2.00;1.70;;;15.40;99.90;;;;;;5105893;27;20047;-73
2023/08/14 00:53:19;;;;;;;1.60;1.50;;;15.40;99.90;;;;;;5123681;27;20054;-75
2023/08/14 00:55:45;;;;;;;2.47;1.40;;;15.30;99.90;;;;;;5133060;27;20900;-73
2023/08/14 00:58:11;;;;;;;1.60;1.50;;;15.30;99.90;;;;;;5108114;27;20065;-73
2023/08/14 01:00:37;;;;;;;1.73;1.63;;;15.30;99.90;;;;;;5104799;27;20058;-74
2023/08/14 01:03:03;;;;;;;5.68;1.83;;;15.20;99.90;;;;;;5123993;27;20047;-73
2023/08/14 01:05:30;;;;;;;2.53;2.33;;;15.20;99.90;;;;;;5108536;27;20043;-73
2023/08/14 01:07:56;;;;;;;2.40;2.20;;;15.20;99.90;;;;;;5106715;27;20054;-73
2023/08/14 01:10:23;;;;;;;3.17;2.65;;;15.10;99.90;;;;;;5131829;27;20112;-74
2023/08/14 01:13:18;;;;;;;3.53;2.80;;;15.00;99.90;;;;;;5111878;27;20418;-75
2023/08/14 01:15:49;;;;;;;3.13;2.85;;;15.10;99.90;;;;;;5137314;27;20050;-75
2023/08/14 01:18:17;;;;;;;3.47;2.80;;;15.00;99.90;;;;;;5132537;27;20043;-73
2023/08/14 01:21:05;;;;;;;3.90;3.08;;;15.00;99.90;;;;;;5124270;27;20139;-72
2023/08/14 01:24:06;;;;;;;4.05;2.70;;;15.00;99.90;;;;;;5124363;27;20141;-73
2023/08/14 01:26:34;;;;;;;5.75;3.42;;;15.00;99.90;;;;;;5144667;27;20089;-73
2023/08/14 01:29:00;;;;;;;3.70;3.20;;;15.00;99.90;;;;;;5123503;27;20062;-74
2023/08/14 01:31:26;;;;;;;4.65;3.30;;;15.00;99.90;;;;;;5120149;27;20081;-73
2023/08/14 01:33:52;;;;;;;3.53;3.22;;;15.00;99.90;;;;;;5134617;27;20145;-73
2023/08/14 01:36:23;;;;;;;3.08;2.78;;;14.90;99.90;;;;;;5130897;27;20072;-73
2023/08/14 01:39:10;;;;;;;4.28;3.08;;;14.90;99.90;;;;;;5120255;27;20071;-74
2023/08/14 01:41:54;;;;;;;4.35;3.70;;;14.90;99.90;;;;;;5123105;27;20043;-73
2023/08/14 01:44:24;;;;;;;4.43;4.00;;;14.90;99.90;;;;;;5137598;27;20051;-72
2023/08/14 01:46:52;;;;;;;4.60;3.72;;;14.90;99.90;;;;;;5129998;27;20795;-73
2023/08/14 01:49:19;;;;;;;3.47;3.17;;;14.80;99.90;;;;;;5121332;27;20047;-73
2023/08/14 01:51:46;;;;;;;4.20;3.28;;;14.90;99.90;;;;;;5124468;27;20084;-72
2023/08/14 01:54:12;;;;;;;6.00;4.05;;;14.90;99.90;;;;;;5127354;27;20050;-72
2023/08/14 01:56:38;;;;;;;4.57;3.35;;;14.80;99.90;;;;;;5105149;27;20097;-74
2023/08/14 01:59:03;;;;;;;3.58;3.20;;;14.80;99.90;;;;;;5123511;27;20067;-74
2023/08/14 02:01:29;;;;;;;3.70;3.40;;;14.70;99.90;;;;;;5135265;27;20047;-75
2023/08/14 02:03:55;;;;;;;8.27;4.25;;;14.70;99.90;;;;;;5105376;27;20050;-73
2023/08/14 02:06:20;;;;;;;5.63;3.20;;;14.70;99.90;;;;;;5104788;27;20058;-74
2023/08/14 02:08:46;;;;;;;4.43;3.10;;;14.70;99.90;;;;;;5105970;27;20152;-73
2023/08/14 02:11:12;;;;;;;4.22;3.75;;;14.70;99.90;;;;;;5116920;27;20088;-73
2023/08/14 02:13:37;;;;;;;4.70;4.30;;;14.60;99.90;;;;;;5123593;27;20584;-73
2023/08/14 02:16:03;;;;;;;6.03;4.50;;;14.60;99.90;;;;;;5131353;27;21178;-75
2023/08/14 02:18:29;;;;;;;8.70;5.38;;;14.60;99.90;;;;;;5113051;27;20090;-72
2023/08/14 02:20:55;;;;;;;4.35;3.70;;;14.60;99.90;;;;;;5127605;27;20047;-74
2023/08/14 02:23:20;;;;;;;7.68;5.00;;;14.70;99.90;;;;;;5134173;27;20407;-72
2023/08/14 02:25:46;;;;;;;4.68;4.28;;;14.60;99.90;;;;;;5127127;27;20143;-73
2023/08/14 02:28:12;;;;;;;5.95;5.20;;;14.60;99.90;;;;;;5114210;27;20126;-73
2023/08/14 02:30:42;;;;;;;7.13;5.22;;;14.70;99.90;;;;;;5128567;27;20442;-73
2023/08/14 02:33:09;;;;;;;4.97;4.00;;;14.70;99.90;;;;;;5124364;27;20043;-74
2023/08/14 02:35:35;;;;;;;5.20;4.18;;;14.70;99.90;;;;;;5139651;27;20170;-73
2023/08/14 02:38:05;;;;;;;10.95;7.15;;;14.70;99.90;;;;;;5144342;27;20593;-73
2023/08/14 02:40:31;;;;;;;8.60;5.85;;;14.70;99.90;;;;;;5140080;27;20045;-73
2023/08/14 02:43:02;;;;;;;7.18;6.40;;;14.70;99.90;;;;;;5134301;27;20043;-73
2023/08/14 02:45:28;;;;;;;7.75;6.38;;;14.70;99.90;;;;;;5139599;27;20146;-75
2023/08/14 02:47:54;;;;;;;6.15;5.40;;;14.80;99.90;;;;;;5105707;27;20054;-73
2023/08/14 02:50:21;;;;;;;4.95;4.35;;;14.70;99.90;;;;;;5124287;27;20510;-74
2023/08/14 02:52:48;;;;;;;7.50;5.03;;;14.80;99.90;;;;;;5128645;27;20050;-73
2023/08/14 02:55:13;;;;;;;4.15;3.75;;;14.70;99.90;;;;;;5113173;27;20090;-72
2023/08/14 02:57:39;;;;;;;6.80;4.45;;;14.70;99.90;;;;;;5120055;27;20133;-73
2023/08/14 03:00:06;;;;;;;5.72;3.83;;;14.70;99.90;;;;;;5125158;27;20042;-72
2023/08/14 03:02:34;;;;;;;4.63;4.22;;;14.60;99.90;;;;;;5114104;27;20062;-73
2023/08/14 03:05:00;;;;;;;6.50;5.25;;;14.70;99.90;;;;;;5124060;27;20231;-74
2023/08/14 03:07:25;;;;;;;3.95;3.45;;;14.60;99.90;;;;;;5107810;27;20447;-74
2023/08/14 03:09:52;;;;;;;6.65;5.70;;;14.60;99.90;;;;;;5143540;27;20835;-75
2023/08/14 03:12:18;;;;;;;7.18;5.78;;;14.60;99.90;;;;;;5119654;27;20050;-73
2023/08/14 03:14:44;;;;;;;9.00;7.40;;;14.60;99.90;;;;;;5123250;27;20039;-73
2023/08/14 03:17:09;;;;;;;6.05;4.88;;;14.60;99.90;;;;;;5124325;27;20512;-75
2023/08/14 03:19:35;;;;;;;4.68;3.90;;;14.60;99.90;;;;;;5111193;27;20058;-73
2023/08/14 03:22:01;;;;;;;4.22;3.83;;;14.60;99.90;;;;;;5110541;27;20046;-74
2023/08/14 03:24:26;;;;;;;7.05;4.60;;;14.60;99.90;;;;;;5108882;27;20079;-74
2023/08/14 03:26:52;;;;;;;3.97;3.67;;;14.60;99.90;;;;;;5134244;27;20042;-72
2023/08/14 03:29:18;;;;;;;3.53;3.10;;;14.50;99.90;;;;;;5110199;27;20134;-73
2023/08/14 03:31:43;;;;;;;6.18;3.90;;;14.50;99.90;;;;;;5137458;27;20047;-73
2023/08/14 03:34:10;;;;;;;4.32;3.95;;;14.40;99.90;;;;;;5133563;27;20047;-73
2023/08/14 03:36:35;;;;;;;4.93;4.53;;;14.40;99.90;;;;;;5133412;27;20122;-74
2023/08/14 03:39:01;;;;;;;4.75;4.15;;;14.40;99.90;;;;;;5122718;27;20060;-73
2023/08/14 03:41:27;;;;;;;6.05;4.90;;;14.30;99.90;;;;;;5128950;27;20045;-73
2023/08/14 03:43:53;;;;;;;6.80;6.05;;;14.30;99.90;;;;;;5111245;27;20785;-75
2023/08/14 03:46:18;;;;;;;6.60;5.72;;;14.30;99.90;;;;;;5120626;27;20150;-75
2023/08/14 03:48:44;;;;;;;8.98;7.38;;;14.30;99.90;;;;;;5129735;27;20054;-74
2023/08/14 03:51:09;;;;;;;8.52;5.10;;;14.30;99.90;;;;;;5135259;27;20066;-74
2023/08/14 03:53:35;;;;;;;10.43;6.32;;;14.30;99.90;;;;;;5135727;27;20054;-77
2023/08/14 03:56:01;;;;;;;8.32;6.53;;;14.30;99.90;;;;;;5131559;27;20053;-74
2023/08/14 03:58:27;;;;;;;8.57;6.32;;;14.20;99.90;;;;;;5130902;27;20043;-75
2023/08/14 04:00:53;;;;;;;7.38;6.63;;;14.20;99.90;;;;;;5129169;27;20607;-75
2023/08/14 04:03:18;;;;;;;6.63;5.93;;;14.20;99.90;;;;;;5128301;27;20551;-74
2023/08/14 04:05:44;;;;;;;7.95;6.85;;;14.30;99.90;;;;;;5134512;27;20042;-73
2023/08/14 04:08:10;;;;;;;7.95;6.75;;;14.20;99.90;;;;;;5107995;27;20061;-75
2023/08/14 04:10:37;;;;;;;9.23;8.07;;;14.20;99.90;;;;;;5114627;27;20180;-74
2023/08/14 04:13:03;;;;;;;9.07;7.75;;;14.20;99.90;;;;;;5124020;27;20047;-73
2023/08/14 04:15:28;;;;;;;9.25;7.32;;;14.20;99.90;;;;;;5127254;27;20062;-73
2023/08/14 04:17:55;;;;;;;8.38;7.40;;;14.20;99.90;;;;;;5134226;27;20043;-74
2023/08/14 04:20:21;;;;;;;9.63;7.82;;;14.20;99.90;;;;;;5123550;27;20046;-73
2023/08/14 04:22:46;;;;;;;10.32;7.93;;;14.20;99.90;;;;;;5115873;27;20067;-75
2023/08/14 04:25:12;;;;;;;9.00;7.63;;;14.20;99.90;;;;;;5093298;27;20531;-75
2023/08/14 04:27:38;;;;;;;8.88;7.63;;;14.20;99.90;;;;;;5142615;27;20890;-74
2023/08/14 04:30:05;;;;;;;11.25;8.18;;;14.20;99.90;;;;;;5116772;27;20761;-75
2023/08/14 04:32:31;;;;;;;9.82;8.40;;;14.20;99.90;;;;;;5122394;27;20063;-73
2023/08/14 04:34:57;;;;;;;9.23;7.70;;;14.20;99.90;;;;;;5125475;27;20085;-75
2023/08/14 04:37:22;;;;;;;10.07;7.88;;;14.20;99.90;;;;;;5131503;27;20138;-74
2023/08/14 04:39:48;;;;;;;11.45;8.73;;;14.30;99.90;;;;;;5121670;27;20039;-73
2023/08/14 04:42:14;;;;;;;10.77;7.30;;;14.30;99.90;;;;;;5104123;28;20068;-73
2023/08/14 04:44:39;;;;;;;9.02;7.80;;;14.30;99.90;;;;;;5124845;27;20065;-75
2023/08/14 04:47:05;;;;;;;11.10;8.60;;;14.40;99.90;;;;;;5139701;27;20046;-73
2023/08/14 04:49:31;;;;;;;9.85;8.40;;;14.40;99.90;;;;;;5123645;27;20051;-74
2023/08/14 04:51:57;;;;;;;9.15;7.82;;;14.50;99.90;;;;;;5086388;28;20448;-74
2023/08/14 04:54:23;;;;;;;8.23;7.28;;;14.50;99.90;;;;;;5137736;27;20042;-74
2023/08/14 04:56:49;;;;;;;10.07;9.07;;;14.60;99.90;;;;;;5111998;28;20545;-74
2023/08/14 04:59:14;;;;;;;8.77;7.78;;;13.70;99.90;;;;;;5127428;27;20047;-74
2023/08/14 05:01:40;;;;;;;10.07;7.28;;;14.70;99.90;;;;;;5103440;28;20058;-75
2023/08/14 05:04:06;;;;;;;9.15;7.65;;;14.70;99.90;;;;;;5137691;27;20082;-73
2023/08/14 05:06:31;;;;;;;8.32;7.53;;;14.90;99.90;;;;;;5106418;28;20763;-73
2023/08/14 05:08:57;;;;;;;10.52;8.13;;;14.90;99.90;;;;;;5127653;27;20046;-75
2023/08/14 05:11:24;;;;;;;9.13;8.00;;;15.00;99.90;;;;;;5125859;27;20138;-74
2023/08/14 05:13:50;;;;;;;11.02;8.32;;;15.10;99.90;;;;;;5136272;27;20054;-74
2023/08/14 05:16:15;;;;;;;10.30;8.02;;;15.20;99.90;;;;;;5123708;27;20051;-75
2023/08/14 05:18:41;;;;;;;11.57;9.45;;;15.30;99.90;;;;;;5108237;27;20054;-74
2023/08/14 05:21:07;;;;;;;13.45;9.65;;;15.30;99.90;;;;;;5131808;27;20114;-76
2023/08/14 05:23:32;;;;;;;12.50;9.75;;;15.40;99.90;;;;;;5121923;27;20586;-75
2023/08/14 05:25:58;;;;;;;11.80;9.30;;;15.50;99.90;;;;;;5125160;27;20042;-74
2023/08/14 05:28:24;;;;;;;13.43;8.73;;;15.50;99.90;;;;;;5126098;27;20119;-74
2023/08/14 05:30:49;;;;;;;10.75;8.70;;;15.60;99.90;;;;;;5134666;27;20050;-74
2023/08/14 05:33:15;;;;;;;13.32;10.48;;;15.60;99.90;;;;;;5101452;27;20562;-74
2023/08/14 05:35:41;;;;;;;11.48;10.27;;;15.70;99.90;;;;;;5133255;27;20778;-74
2023/08/14 05:38:07;;;;;;;10.85;9.60;;;15.80;99.90;;;;;;5106807;27;20058;-75
2023/08/14 05:40:33;;;;;;;13.65;9.68;;;16.00;99.90;;;;;;5112529;27;20050;-75
2023/08/14 05:43:09;;;;;;;13.82;9.10;;;16.10;99.90;;;;;;5113754;27;20039;-73
2023/08/14 05:45:43;;;;;;;15.18;9.52;;;16.20;99.90;;;;;;5103534;27;20048;-73
2023/08/14 05:48:09;;;;;;;12.48;9.88;;;16.30;99.90;;;;;;5102334;27;20119;-73
2023/08/14 05:50:36;;;;;;;10.60;8.93;;;15.70;99.90;;;;;;5114507;27;20049;-74
2023/08/14 05:53:04;;;;;;;11.30;9.35;;;16.50;99.90;;;;;;5117568;27;20054;-74
2023/08/14 05:55:31;;;;;;;9.50;8.32;;;16.50;99.90;;;;;;5108014;27;20075;-75
2023/08/14 05:57:57;;;;;;;9.75;8.48;;;16.60;99.90;;;;;;5120000;27;20054;-76
2023/08/14 06:00:24;;;;;;;9.57;7.63;;;16.60;99.90;;;;;;5101804;27;20044;-77
2023/08/14 06:02:53;;;;;;;10.77;8.32;;;16.70;99.90;;;;;;5101571;27;20055;-77
2023/08/14 06:05:20;;;;;;;9.57;8.35;;;16.80;99.90;;;;;;5101595;27;20047;-74
2023/08/14 06:07:50;;;;;;;10.40;7.47;;;16.80;99.90;;;;;;5119627;27;20043;-76
2023/08/14 06:10:16;;;;;;;9.90;7.45;;;16.90;99.90;;;;;;5103784;27;20070;-75
2023/08/14 06:12:42;;;;;;;8.85;7.50;;;17.00;99.90;;;;;;5106772;27;20505;-74
2023/08/14 06:15:08;;;;;;;10.20;8.75;;;17.10;99.90;;;;;;5110602;27;20040;-74
2023/08/14 06:17:34;;;;;;;12.05;8.35;;;17.20;99.90;;;;;;5104388;27;20051;-75
2023/08/14 06:20:00;;;;;;;8.07;7.18;;;17.20;99.90;;;;;;5106436;27;20039;-74
2023/08/14 06:22:26;;;;;;;9.00;7.60;;;17.30;99.90;;;;;;5111025;27;20121;-73
2023/08/14 06:24:52;;;;;;;8.63;6.90;;;17.40;99.90;;;;;;5117131;27;20166;-74
2023/08/14 06:27:18;;;;;;;8.52;6.68;;;17.50;99.90;;;;;;5113006;27;20065;-75
2023/08/14 06:29:44;;;;;;;9.73;7.30;;;17.60;99.90;;;;;;5114846;27;20540;-75
2023/08/14 06:32:09;;;;;;;11.90;7.53;;;17.60;99.90;;;;;;5101511;27;20083;-78
2023/08/14 06:34:35;;;;;;;9.70;7.55;;;17.70;99.90;;;;;;5103905;27;20050;-74
2023/08/14 06:37:01;;;;;;;12.20;7.60;;;17.80;99.90;;;;;;5128635;27;20066;-75
2023/08/14 06:39:27;;;;;;;10.23;6.25;;;17.80;99.90;;;;;;5126773;27;20047;-75
2023/08/14 06:41:53;;;;;;;9.27;6.72;;;17.80;99.90;;;;;;5139453;27;20866;-76
2023/08/14 06:44:19;;;;;;;8.98;6.28;;;17.90;99.90;;;;;;5102594;27;20081;-75
2023/08/14 06:46:44;;;;;;;7.38;6.00;;;17.90;99.90;;;;;;5128974;27;20075;-75
2023/08/14 06:49:11;;;;;;;6.78;6.07;;;17.90;99.90;;;;;;5129265;27;20039;-74
2023/08/14 06:51:37;;;;;;;9.07;5.65;;;18.00;99.90;;;;;;5130111;27;20042;-76
2023/08/14 06:54:03;;;;;;;8.85;7.53;;;18.00;99.90;;;;;;5136848;27;20086;-74
2023/08/14 06:56:29;;;;;;;9.75;5.93;;;18.10;99.90;;;;;;5122788;27;20074;-72
2023/08/14 06:58:55;;;;;;;8.98;6.53;;;18.20;99.90;;;;;;5125984;27;20201;-77
2023/08/14 07:01:21;;;;;;;7.53;6.10;;;18.30;99.90;;;;;;5120087;27;20442;-75
2023/08/14 07:03:47;;;;;;;7.82;6.25;;;18.30;99.90;;;;;;5107715;27;20508;-73
2023/08/14 07:06:13;;;;;;;7.97;6.00;;;18.40;99.90;;;;;;5121021;27;20053;-76
2023/08/14 07:08:39;;;;;;;15.93;6.80;;;18.40;99.90;;;;;;5100132;27;20397;-74
2023/08/14 07:11:04;;;;;;;8.77;5.75;;;18.50;99.90;;;;;;5140421;27;20046;-75
2023/08/14 07:13:30;;;;;;;8.27;5.60;;;18.60;99.90;;;;;;5125234;27;20514;-74
2023/08/14 07:15:56;;;;;;;8.43;6.10;;;18.70;99.90;;;;;;5140005;27;20167;-72
2023/08/14 07:18:21;;;;;;;9.05;6.35;;;18.90;99.90;;;;;;5108799;27;20093;-74
2023/08/14 07:20:48;;;;;;;6.72;5.68;;;19.20;99.90;;;;;;5131140;27;20065;-77
2023/08/14 07:23:18;;;;;;;6.78;6.07;;;19.80;99.90;;;;;;5127770;27;20042;-72
2023/08/14 07:25:44;;;;;;;8.73;5.70;;;20.40;99.90;;;;;;5095158;27;20046;-72
2023/08/14 07:28:11;;;;;;;7.50;5.30;;;20.80;99.90;;;;;;5127435;27;20054;-75
2023/08/14 07:30:37;;;;;;;7.45;5.18;;;21.30;99.90;;;;;;5132438;27;20043;-76
2023/08/14 07:33:07;;;;;;;4.78;4.38;;;21.90;99.90;;;;;;5121912;27;20486;-73
2023/08/14 07:35:33;;;;;;;8.05;5.00;;;22.90;99.90;;;;;;5121324;27;20065;-74
2023/08/14 07:37:59;;;;;;;9.98;5.60;;;23.90;99.90;;;;;;5135994;27;20047;-78
2023/08/14 07:40:25;;;;;;;6.93;4.43;;;24.50;99.90;;;;;;5126598;27;20045;-75
2023/08/14 07:42:50;;;;;;;5.07;3.95;;;25.20;99.90;;;;;;5129813;27;20046;-77
2023/08/14 07:45:16;;;;;;;5.65;3.47;;;25.90;99.90;;;;;;5091708;27;20122;-74
2023/08/14 07:47:42;;;;;;;4.75;3.33;;;26.70;99.90;;;;;;5135189;27;20053;-74
2023/08/14 07:50:09;;;;;;;5.05;3.90;;;27.20;99.90;;;;;;5120510;27;20462;-74
2023/08/14 07:52:35;;;;;;;5.00;3.45;;;26.80;99.90;;;;;;5133413;27;20047;-76
2023/08/14 07:55:01;;;;;;;6.80;3.30;;;26.30;99.90;;;;;;5126320;27;20109;-76
2023/08/14 07:57:27;;;;;;;6.15;3.47;;;25.50;99.90;;;;;;5132788;27;20043;-76
2023/08/14 07:59:54;;;;;;;4.97;3.05;;;25.20;99.90;;;;;;5120851;27;20901;-78
2023/08/14 08:02:20;;;;;;;4.57;3.17;;;24.50;99.90;;;;;;5129720;27;20043;-74
2023/08/14 08:04:46;;;;;;;7.07;3.17;;;24.10;99.90;;;;;;5119748;27;20083;-75
2023/08/14 08:07:12;;;;;;;4.60;3.08;;;23.80;99.90;;;;;;5119048;27;20057;-77
2023/08/14 08:09:38;;;;;;;3.97;2.83;;;23.60;99.90;;;;;;5118420;27;20102;-74
2023/08/14 08:12:04;;;;;;;3.63;2.92;;;23.60;99.90;;;;;;5131852;27;20146;-76
2023/08/14 08:14:29;;;;;;;6.90;3.13;;;23.70;99.90;;;;;;5138574;27;20045;-74
2023/08/14 08:16:55;;;;;;;5.95;2.63;;;23.90;99.90;;;;;;5114770;27;20043;-79
2023/08/14 08:19:21;;;;;;;3.33;2.60;;;24.10;99.90;;;;;;5101164;27;20499;-74
2023/08/14 08:21:47;;;;;;;5.05;2.60;;;24.10;99.90;;;;;;5129639;27;20043;-74
2023/08/14 08:24:13;;;;;;;3.75;3.13;;;24.10;99.90;;;;;;5132688;27;20074;-75
2023/08/14 08:26:39;;;;;;;4.45;3.08;;;23.90;99.90;;;;;;5116129;27;20176;-73
2023/08/14 08:29:05;;;;;;;5.05;2.90;;;24.10;99.90;;;;;;5115116;27;20046;-74
2023/08/14 08:31:31;;;;;;;6.50;2.67;;;24.20;99.90;;;;;;5136330;27;20531;-74
2023/08/14 08:33:57;;;;;;;3.55;3.10;;;24.50;99.90;;;;;;5133679;27;20081;-77
2023/08/14 08:36:23;;;;;;;5.93;2.65;;;25.10;99.90;;;;;;5133522;27;20915;-76
2023/08/14 08:38:49;;;;;;;4.30;2.60;;;25.70;99.90;;;;;;5120863;27;20047;-74
2023/08/14 08:41:24;;;;;;;3.97;2.55;;;26.10;99.90;;;;;;5123423;27;20903;-71
2023/08/14 08:44:11;;;;;;;4.45;2.55;;;26.70;99.90;;;;;;5096035;27;20081;-75
2023/08/14 08:46:44;;;;;;;2.83;2.17;;;27.20;99.90;;;;;;5130704;27;20596;-75
2023/08/14 08:49:11;;;;;;;2.88;1.80;;;28.00;99.90;;;;;;5133708;27;20766;-73
2023/08/14 08:51:39;;;;;;;5.82;1.83;;;28.70;99.90;;;;;;5135867;27;20039;-76
2023/08/14 08:54:05;;;;;;;5.05;2.20;;;29.00;99.90;;;;;;5134004;27;20115;-75
2023/08/14 08:56:32;;;;;;;3.78;2.17;;;29.90;99.90;;;;;;5136795;27;20099;-73
2023/08/14 08:58:58;;;;;;;3.38;1.70;;;30.30;99.40;;;;;;5130913;27;20057;-77
2023/08/14 09:01:25;;;;;;;4.10;2.30;;;29.90;98.80;;;;;;5131389;27;20096;-72
2023/08/14 09:03:51;;;;;;;5.72;2.00;;;29.20;98.40;;;;;;5138823;27;20051;-73
2023/08/14 09:06:17;;;;;;;2.47;1.83;;;28.40;98.60;;;;;;5126769;27;20050;-73
2023/08/14 09:08:43;;;;;;;6.13;2.53;;;27.70;99.00;;;;;;5129056;27;20524;-75
2023/08/14 09:11:08;;;;;;;4.00;2.28;;;27.00;99.50;;;;;;5122641;27;20051;-74
2023/08/14 09:13:34;;;;;;;2.13;1.95;;;26.60;99.80;;;;;;5131418;27;20126;-73
2023/08/14 09:16:01;;;;;;;2.53;1.90;;;26.50;99.90;;;;;;5108132;27;20060;-76
2023/08/14 09:18:26;;;;;;;3.25;1.67;;;26.80;99.90;;;;;;5134009;27;20140;-72
2023/08/14 09:20:53;;;;;;;3.17;2.25;;;27.70;99.90;;;;;;5136089;27;20043;-74
2023/08/14 09:23:19;;;;;;;5.35;2.00;;;28.80;99.30;;;;;;5140363;27;20054;-74
2023/08/14 09:25:49;;;;;;;3.15;1.60;;;29.60;98.20;;;;;;5136434;27;20148;-75
2023/08/14 09:28:17;;;;;;;1.73;1.33;;;29.80;98.10;;;;;;5114044;27;20195;-76
2023/08/14 09:30:43;;;;;;;3.85;1.55;;;29.80;96.20;;;;;;5122379;27;20047;-74
2023/08/14 09:33:11;;;;;;;1.90;1.60;;;29.70;96.40;;;;;;5122783;27;20116;-78
2023/08/14 09:35:38;;;;;;;2.38;1.58;;;30.10;96.50;;;;;;5106538;27;20755;-77
2023/08/14 09:38:04;;;;;;;2.50;1.42;;;30.30;95.80;;;;;;5134876;27;20062;-76
2023/08/14 09:40:31;;;;;;;4.15;2.35;;;30.40;94.00;;;;;;5128209;27;20051;-76
2023/08/14 09:42:57;;;;;;;3.30;1.65;;;30.50;94.90;;;;;;5129327;27;20058;-75
2023/08/14 09:45:24;;;;;;;4.70;1.73;;;30.50;95.90;;;;;;5143015;27;20054;-74
2023/08/14 09:47:51;;;;;;;3.83;1.77;;;30.70;95.60;;;;;;5142694;27;20086;-75
2023/08/14 09:50:19;;;;;;;3.53;1.50;;;31.00;95.40;;;;;;5141208;27;20060;-75
2023/08/14 09:52:45;;;;;;;5.05;2.10;;;30.80;95.10;;;;;;5141248;27;20117;-74
2023/08/14 09:55:14;;;;;;;3.80;2.05;;;30.40;95.00;;;;;;5122476;27;20193;-76
2023/08/14 09:57:40;;;;;;;4.15;1.92;;;29.70;95.10;;;;;;5116303;27;20047;-75
2023/08/14 10:00:07;;;;;;;3.17;2.15;;;29.60;94.80;;;;;;5128173;27;20110;-73
2023/08/14 10:02:33;;;;;;;2.92;1.88;;;29.80;95.20;;;;;;5133047;27;20042;-74
2023/08/14 10:05:04;;;;;;;5.60;2.53;;;29.40;95.30;;;;;;5114032;27;20121;-74
2023/08/14 10:07:31;;;;;;;4.50;2.20;;;29.60;95.30;;;;;;5127607;27;20043;-74
2023/08/14 10:10:02;;;;;;;2.40;1.70;;;28.90;92.80;;;;;;5126451;27;20081;-74
2023/08/14 10:12:32;;;;;;;2.72;2.00;;;29.30;94.50;;;;;;5126286;27;20039;-76
2023/08/14 10:15:07;;;;;;;2.70;1.88;;;29.90;95.40;;;;;;5129074;27;20077;-77
2023/08/14 10:17:45;;;;;;;3.15;1.70;;;30.00;94.90;;;;;;5130227;27;20054;-75
2023/08/14 10:20:15;;;;;;;4.28;1.85;;;30.00;94.80;;;;;;5129044;27;20180;-76
2023/08/14 10:22:41;;;;;;;4.00;1.80;;;29.50;94.80;;;;;;5127710;27;20126;-76
2023/08/14 10:25:08;;;;;;;2.35;1.58;;;29.80;94.50;;;;;;5122473;27;20070;-76
2023/08/14 10:27:34;;;;;;;2.78;1.73;;;30.10;93.90;;;;;;5122159;27;20102;-76
2023/08/14 10:30:01;;;;;;;2.95;2.03;;;29.90;93.80;;;;;;5127440;27;20298;-77
2023/08/14 10:32:28;;;;;;;3.53;1.90;;;30.30;94.00;;;;;;5127352;27;20039;-74
2023/08/14 10:34:55;;;;;;;3.10;1.58;;;30.50;93.40;;;;;;5106848;27;20042;-73
2023/08/14 10:37:28;;;;;;;3.53;2.00;;;30.80;93.60;;;;;;5129990;27;20091;-74
2023/08/14 10:40:14;;;;;;;3.00;1.92;;;30.90;92.20;;;;;;5135442;27;20059;-75
2023/08/14 10:42:55;;;;;;;3.63;2.45;;;30.90;93.00;;;;;;5135747;27;20150;-75
2023/08/14 10:45:26;;;;;;;2.42;1.80;;;30.90;91.70;;;;;;5128594;27;20031;-74
2023/08/14 10:47:53;;;;;;;4.70;2.25;;;30.80;92.30;;;;;;5112791;27;20046;-76
2023/08/14 10:50:20;;;;;;;2.15;1.45;;;30.80;93.00;;;;;;5123352;27;20606;-77
2023/08/14 10:52:51;;;;;;;2.60;1.60;;;31.10;92.90;;;;;;5128059;27;20042;-72
2023/08/14 10:55:25;;;;;;;2.80;1.70;;;31.20;92.10;;;;;;5135924;27;20046;-74
2023/08/14 10:57:53;;;;;;;3.35;1.50;;;30.80;92.10;;;;;;5130680;27;20073;-75
2023/08/14 11:00:21;;;;;;;2.30;1.73;;;30.00;92.40;;;;;;5121492;27;20051;-74
2023/08/14 11:03:04;;;;;;;4.38;2.65;;;30.30;92.20;;;;;;5121989;27;20047;-76
2023/08/14 11:05:38;;;;;;;3.80;1.90;;;29.70;93.00;;;;;;5126643;27;20051;-76
2023/08/14 11:08:09;;;;;;;3.22;1.88;;;29.10;93.00;;;;;;5121369;27;20047;-75
2023/08/14 11:10:35;;;;;;;5.15;1.83;;;28.70;93.40;;;;;;5132416;27;20046;-74
2023/08/14 11:13:02;;;;;;;2.85;2.03;;;28.40;93.80;;;;;;5138624;27;20213;-74
2023/08/14 11:15:31;;;;;;;2.92;2.08;;;28.50;93.60;;;;;;5133740;27;20074;-74
2023/08/14 11:17:58;;;;;;;2.45;2.25;;;28.50;93.30;;;;;;5129077;27;20073;-74
2023/08/14 11:20:27;;;;;;;4.47;2.03;;;28.40;92.90;;;;;;5114089;27;20453;-74
2023/08/14 11:22:53;;;;;;;4.10;1.90;;;28.20;93.70;;;;;;5137342;27;20378;-75
2023/08/14 11:25:20;;;;;;;3.25;2.00;;;28.30;94.30;;;;;;5127311;27;20047;-72
2023/08/14 11:27:54;;;;;;;2.60;1.90;;;28.20;94.10;;;;;;5127354;27;20368;-72
2023/08/14 11:30:22;;;;;;;3.35;2.03;;;28.30;93.10;;;;;;5131097;27;20125;-72
2023/08/14 11:32:49;;;;;;;3.67;2.45;;;28.00;92.80;;;;;;5136942;27;20133;-75
2023/08/14 11:35:16;;;;;;;3.95;1.90;;;27.70;93.10;;;;;;5104549;27;20051;-73
2023/08/14 11:37:41;;;;;;;3.33;2.10;;;27.60;93.40;;;;;;5132343;27;20131;-75
2023/08/14 11:40:09;;;;;;;3.15;2.10;;;27.50;93.80;;;;;;5121344;27;20563;-75
2023/08/14 11:42:36;;;;;;;4.07;2.35;;;27.50;94.00;;;;;;5133511;27;20093;-72
2023/08/14 11:45:03;;;;;;;4.55;1.83;;;27.50;94.40;;;;;;5132218;27;20066;-74
2023/08/14 11:47:31;;;;;;;2.17;1.90;;;27.70;94.00;;;;;;5137891;27;20651;-73
2023/08/14 11:49:57;;;;;;;3.75;2.20;;;27.70;93.50;;;;;;5125787;27;20039;-74
2023/08/14 11:52:26;;;;;;;3.97;2.00;;;27.70;93.20;;;;;;5140375;27;20091;-72
2023/08/14 11:54:52;;;;;;;4.03;1.90;;;27.90;93.30;;;;;;5122555;27;20150;-73
2023/08/14 11:57:17;;;;;;;2.70;1.90;;;27.90;92.90;;;;;;5128950;27;20093;-73
2023/08/14 11:59:44;;;;;;;5.32;2.45;;;28.10;94.00;;;;;;5119403;27;20428;-75
2023/08/14 12:02:10;;;;;;;3.72;1.85;;;28.20;94.10;;;;;;5127274;27;20092;-74
2023/08/14 12:04:40;;;;;;;1.73;1.60;;;28.40;94.00;;;;;;5107994;27;20043;-73
2023/08/14 12:07:09;;;;;;;2.95;1.98;;;28.50;93.30;;;;;;5125992;27;20796;-73
2023/08/14 12:09:37;;;;;;;2.03;1.60;;;28.50;93.30;;;;;;5127296;27;20771;-74
2023/08/14 12:12:04;;;;;;;2.00;1.80;;;28.60;93.00;;;;;;5140040;27;20440;-74
2023/08/14 12:14:47;;;;;;;4.25;1.98;;;28.70;92.70;;;;;;5123874;27;20128;-73
2023/08/14 12:17:13;;;;;;;2.80;1.75;;;28.80;92.60;;;;;;5131695;27;20091;-74
2023/08/14 12:19:40;;;;;;;3.42;2.13;;;28.80;92.80;;;;;;5105076;27;20045;-70
2023/08/14 12:22:06;;;;;;;2.03;1.40;;;28.70;92.60;;;;;;5107305;27;20046;-73
2023/08/14 12:24:44;;;;;;;3.30;1.65;;;28.80;92.70;;;;;;5135475;27;20054;-75
2023/08/14 12:27:27;;;;;;;5.18;1.80;;;28.50;92.10;;;;;;5135391;27;20510;-74
2023/08/14 12:29:54;;;;;;;2.67;1.63;;;28.40;92.40;;;;;;5129515;27;20046;-72
2023/08/14 12:32:21;;;;;;;4.57;1.77;;;28.10;92.60;;;;;;5133399;27;20380;-73
2023/08/14 12:34:47;;;;;;;3.75;1.83;;;28.30;92.80;;;;;;5126044;27;20915;-75
2023/08/14 12:37:15;;;;;;;2.97;1.98;;;28.40;92.30;;;;;;5117591;27;20065;-75
2023/08/14 12:39:47;;;;;;;1.80;1.55;;;28.60;92.30;;;;;;5138514;27;20084;-74
2023/08/14 12:42:14;;;;;;;2.72;1.70;;;28.80;92.10;;;;;;5136470;27;20054;-71
2023/08/14 12:44:39;;;;;;;4.13;2.20;;;28.80;91.60;;;;;;5110649;27;20121;-73
2023/08/14 12:47:09;;;;;;;2.75;1.80;;;28.80;91.20;;;;;;5117736;27;20043;-72